sensor_id;sensor_type;location;lat;lon;timestamp;temperature;humidity
13440;DHT22;6792;57.698;11.946;2023-07-20T00:00:48;22.00;46.30
13440;DHT22;6792;57.698;11.946;2023-07-20T00:03:18;22.00;46.20
13440;DHT22;6792;57.698;11.946;2023-07-20T00:05:50;21.90;46.30
13440;DHT22;6792;57.698;11.946;2023-07-20T00:08:21;21.90;45.70
13440;DHT22;6792;57.698;11.946;2023-07-20T00:10:52;21.90;46.30
13440;DHT22;6792;57.698;11.946;2023-07-20T00:13:22;21.90;46.40
13440;DHT22;6792;57.698;11.946;2023-07-20T00:15:52;21.90;46.30
13440;DHT22;6792;57.698;11.946;2023-07-20T00:18:21;21.90;45.80
13440;DHT22;6792;57.698;11.946;2023-07-20T00:20:52;21.90;45.80
13440;DHT22;6792;57.698;11.946;2023-07-20T00:23:21;21.90;46.40
13440;DHT22;6792;57.698;11.946;2023-07-20T00:25:50;21.90;46.40
13440;DHT22;6792;57.698;11.946;2023-07-20T00:28:20;21.90;46.40
13440;DHT22;6792;57.698;11.946;2023-07-20T00:30:49;22.00;46.50
13440;DHT22;6792;57.698;11.946;2023-07-20T00:33:19;22.00;46.50
13440;DHT22;6792;57.698;11.946;2023-07-20T00:35:48;21.90;46.50
13440;DHT22;6792;57.698;11.946;2023-07-20T00:38:17;22.00;46.60
13440;DHT22;6792;57.698;11.946;2023-07-20T00:40:46;21.90;46.50
13440;DHT22;6792;57.698;11.946;2023-07-20T00:43:17;21.90;46.10
13440;DHT22;6792;57.698;11.946;2023-07-20T00:45:47;21.90;46.60
13440;DHT22;6792;57.698;11.946;2023-07-20T00:48:16;21.90;46.10
13440;DHT22;6792;57.698;11.946;2023-07-20T00:50:46;21.90;46.70
13440;DHT22;6792;57.698;11.946;2023-07-20T00:53:16;21.90;46.10
13440;DHT22;6792;57.698;11.946;2023-07-20T00:55:46;21.80;46.10
13440;DHT22;6792;57.698;11.946;2023-07-20T00:58:16;21.90;46.20
13440;DHT22;6792;57.698;11.946;2023-07-20T01:00:46;21.90;46.70
13440;DHT22;6792;57.698;11.946;2023-07-20T01:03:15;21.90;46.80
13440;DHT22;6792;57.698;11.946;2023-07-20T01:05:47;21.90;46.90
13440;DHT22;6792;57.698;11.946;2023-07-20T01:08:23;21.90;46.40
13440;DHT22;6792;57.698;11.946;2023-07-20T01:10:54;21.90;46.40
13440;DHT22;6792;57.698;11.946;2023-07-20T01:13:24;21.90;46.50
13440;DHT22;6792;57.698;11.946;2023-07-20T01:15:57;21.90;46.50
13440;DHT22;6792;57.698;11.946;2023-07-20T01:18:27;21.90;46.50
13440;DHT22;6792;57.698;11.946;2023-07-20T01:20:59;21.90;47.00
13440;DHT22;6792;57.698;11.946;2023-07-20T01:23:50;21.90;46.40
13440;DHT22;6792;57.698;11.946;2023-07-20T01:26:35;21.90;46.40
13440;DHT22;6792;57.698;11.946;2023-07-20T01:29:20;21.80;46.30
13440;DHT22;6792;57.698;11.946;2023-07-20T01:31:53;21.80;46.20
13440;DHT22;6792;57.698;11.946;2023-07-20T01:34:24;21.80;46.30
13440;DHT22;6792;57.698;11.946;2023-07-20T01:36:55;21.80;47.00
13440;DHT22;6792;57.698;11.946;2023-07-20T01:39:25;21.80;46.40
13440;DHT22;6792;57.698;11.946;2023-07-20T01:41:54;21.80;46.30
13440;DHT22;6792;57.698;11.946;2023-07-20T01:44:23;21.80;46.20
13440;DHT22;6792;57.698;11.946;2023-07-20T01:46:53;21.80;46.70
13440;DHT22;6792;57.698;11.946;2023-07-20T01:49:22;21.80;46.60
13440;DHT22;6792;57.698;11.946;2023-07-20T01:51:54;21.80;46.60
13440;DHT22;6792;57.698;11.946;2023-07-20T01:54:23;21.80;46.10
13440;DHT22;6792;57.698;11.946;2023-07-20T01:56:53;21.80;46.70
13440;DHT22;6792;57.698;11.946;2023-07-20T01:59:23;21.80;46.70
13440;DHT22;6792;57.698;11.946;2023-07-20T02:01:52;21.70;46.70
13440;DHT22;6792;57.698;11.946;2023-07-20T02:04:22;21.70;46.60
13440;DHT22;6792;57.698;11.946;2023-07-20T02:06:51;21.70;46.70
13440;DHT22;6792;57.698;11.946;2023-07-20T02:09:23;21.70;46.70
13440;DHT22;6792;57.698;11.946;2023-07-20T02:11:52;21.70;46.80
13440;DHT22;6792;57.698;11.946;2023-07-20T02:14:21;21.70;46.80
13440;DHT22;6792;57.698;11.946;2023-07-20T02:16:51;21.70;46.90
13440;DHT22;6792;57.698;11.946;2023-07-20T02:19:22;21.70;46.30
13440;DHT22;6792;57.698;11.946;2023-07-20T02:21:51;21.70;46.30
13440;DHT22;6792;57.698;11.946;2023-07-20T02:24:21;21.70;46.80
13440;DHT22;6792;57.698;11.946;2023-07-20T02:26:53;21.60;46.80
13440;DHT22;6792;57.698;11.946;2023-07-20T02:29:22;21.60;46.90
13440;DHT22;6792;57.698;11.946;2023-07-20T02:31:54;21.60;46.90
13440;DHT22;6792;57.698;11.946;2023-07-20T02:34:23;21.60;46.90
13440;DHT22;6792;57.698;11.946;2023-07-20T02:36:52;21.70;47.10
13440;DHT22;6792;57.698;11.946;2023-07-20T02:39:23;21.70;47.20
13440;DHT22;6792;57.698;11.946;2023-07-20T02:41:53;21.60;46.70
13440;DHT22;6792;57.698;11.946;2023-07-20T02:44:22;21.70;47.40
13440;DHT22;6792;57.698;11.946;2023-07-20T02:46:51;21.60;46.90
13440;DHT22;6792;57.698;11.946;2023-07-20T02:49:20;21.60;47.00
13440;DHT22;6792;57.698;11.946;2023-07-20T02:51:50;21.60;47.00
13440;DHT22;6792;57.698;11.946;2023-07-20T02:54:19;21.60;47.70
13440;DHT22;6792;57.698;11.946;2023-07-20T02:56:48;21.60;47.70
13440;DHT22;6792;57.698;11.946;2023-07-20T02:59:18;21.60;47.10
13440;DHT22;6792;57.698;11.946;2023-07-20T03:01:47;21.60;47.10
13440;DHT22;6792;57.698;11.946;2023-07-20T03:04:16;21.60;47.70
13440;DHT22;6792;57.698;11.946;2023-07-20T03:06:45;21.70;47.80
13440;DHT22;6792;57.698;11.946;2023-07-20T03:09:15;21.70;47.80
13440;DHT22;6792;57.698;11.946;2023-07-20T03:11:44;21.60;47.70
13440;DHT22;6792;57.698;11.946;2023-07-20T03:14:13;21.60;47.70
13440;DHT22;6792;57.698;11.946;2023-07-20T03:16:42;21.60;47.70
13440;DHT22;6792;57.698;11.946;2023-07-20T03:19:12;21.60;47.70
13440;DHT22;6792;57.698;11.946;2023-07-20T03:21:41;21.60;47.70
13440;DHT22;6792;57.698;11.946;2023-07-20T03:24:10;21.60;47.70
13440;DHT22;6792;57.698;11.946;2023-07-20T03:26:39;21.60;46.90
13440;DHT22;6792;57.698;11.946;2023-07-20T03:29:09;21.60;47.30
13440;DHT22;6792;57.698;11.946;2023-07-20T03:31:38;21.60;46.60
13440;DHT22;6792;57.698;11.946;2023-07-20T03:34:07;21.60;47.00
13440;DHT22;6792;57.698;11.946;2023-07-20T03:36:36;21.60;46.90
13440;DHT22;6792;57.698;11.946;2023-07-20T03:39:06;21.60;46.60
13440;DHT22;6792;57.698;11.946;2023-07-20T03:41:35;21.60;46.50
13440;DHT22;6792;57.698;11.946;2023-07-20T03:44:05;21.60;46.40
13440;DHT22;6792;57.698;11.946;2023-07-20T03:46:34;21.50;46.10
13440;DHT22;6792;57.698;11.946;2023-07-20T03:49:03;21.60;46.00
13440;DHT22;6792;57.698;11.946;2023-07-20T03:51:33;21.60;45.40
13440;DHT22;6792;57.698;11.946;2023-07-20T03:54:03;21.50;45.80
13440;DHT22;6792;57.698;11.946;2023-07-20T03:56:32;21.50;45.70
13440;DHT22;6792;57.698;11.946;2023-07-20T03:59:03;21.50;45.00
13440;DHT22;6792;57.698;11.946;2023-07-20T04:01:32;21.50;45.60
13440;DHT22;6792;57.698;11.946;2023-07-20T04:04:06;21.40;45.60
13440;DHT22;6792;57.698;11.946;2023-07-20T04:06:36;21.40;45.10
13440;DHT22;6792;57.698;11.946;2023-07-20T04:09:05;21.40;45.10
13440;DHT22;6792;57.698;11.946;2023-07-20T04:11:34;21.40;45.80
13440;DHT22;6792;57.698;11.946;2023-07-20T04:14:03;21.40;45.70
13440;DHT22;6792;57.698;11.946;2023-07-20T04:16:33;21.40;45.80
13440;DHT22;6792;57.698;11.946;2023-07-20T04:19:02;21.40;45.70
13440;DHT22;6792;57.698;11.946;2023-07-20T04:21:31;21.40;45.10
13440;DHT22;6792;57.698;11.946;2023-07-20T04:24:02;21.40;45.60
13440;DHT22;6792;57.698;11.946;2023-07-20T04:26:32;21.30;45.50
13440;DHT22;6792;57.698;11.946;2023-07-20T04:29:01;21.30;44.90
13440;DHT22;6792;57.698;11.946;2023-07-20T04:31:31;21.30;44.90
13440;DHT22;6792;57.698;11.946;2023-07-20T04:34:01;21.40;44.90
13440;DHT22;6792;57.698;11.946;2023-07-20T04:36:30;21.40;45.40
13440;DHT22;6792;57.698;11.946;2023-07-20T04:38:59;21.40;44.80
13440;DHT22;6792;57.698;11.946;2023-07-20T04:41:28;21.50;45.30
13440;DHT22;6792;57.698;11.946;2023-07-20T04:43:57;21.50;45.30
13440;DHT22;6792;57.698;11.946;2023-07-20T04:46:27;21.50;45.20
13440;DHT22;6792;57.698;11.946;2023-07-20T04:48:56;21.60;45.20
13440;DHT22;6792;57.698;11.946;2023-07-20T04:51:25;21.50;45.10
13440;DHT22;6792;57.698;11.946;2023-07-20T04:53:54;21.60;45.10
13440;DHT22;6792;57.698;11.946;2023-07-20T04:56:24;21.50;45.00
13440;DHT22;6792;57.698;11.946;2023-07-20T04:58:53;21.50;45.00
13440;DHT22;6792;57.698;11.946;2023-07-20T05:01:22;21.60;45.00
13440;DHT22;6792;57.698;11.946;2023-07-20T05:03:52;21.60;45.10
13440;DHT22;6792;57.698;11.946;2023-07-20T05:06:21;21.60;44.90
13440;DHT22;6792;57.698;11.946;2023-07-20T05:08:52;21.70;44.90
13440;DHT22;6792;57.698;11.946;2023-07-20T05:11:22;21.70;44.30
13440;DHT22;6792;57.698;11.946;2023-07-20T05:13:51;21.70;44.90
13440;DHT22;6792;57.698;11.946;2023-07-20T05:16:22;21.70;44.80
13440;DHT22;6792;57.698;11.946;2023-07-20T05:18:51;21.80;44.80
13440;DHT22;6792;57.698;11.946;2023-07-20T05:21:23;21.80;44.80
13440;DHT22;6792;57.698;11.946;2023-07-20T05:23:52;21.80;44.70
13440;DHT22;6792;57.698;11.946;2023-07-20T05:26:22;21.80;44.70
13440;DHT22;6792;57.698;11.946;2023-07-20T05:28:51;21.80;44.50
13440;DHT22;6792;57.698;11.946;2023-07-20T05:31:20;21.80;44.40
13440;DHT22;6792;57.698;11.946;2023-07-20T05:33:50;21.80;44.40
13440;DHT22;6792;57.698;11.946;2023-07-20T05:36:22;21.80;44.50
13440;DHT22;6792;57.698;11.946;2023-07-20T05:38:54;21.80;44.40
13440;DHT22;6792;57.698;11.946;2023-07-20T05:41:23;21.80;43.90
13440;DHT22;6792;57.698;11.946;2023-07-20T05:43:52;21.80;44.50
13440;DHT22;6792;57.698;11.946;2023-07-20T05:46:22;21.90;44.50
13440;DHT22;6792;57.698;11.946;2023-07-20T05:48:55;21.80;44.50
13440;DHT22;6792;57.698;11.946;2023-07-20T05:51:24;21.90;44.50
13440;DHT22;6792;57.698;11.946;2023-07-20T05:53:56;21.90;44.50
13440;DHT22;6792;57.698;11.946;2023-07-20T05:56:25;21.90;44.60
13440;DHT22;6792;57.698;11.946;2023-07-20T05:58:55;21.90;44.70
13440;DHT22;6792;57.698;11.946;2023-07-20T06:01:24;21.90;44.70
13440;DHT22;6792;57.698;11.946;2023-07-20T06:03:55;21.90;44.70
13440;DHT22;6792;57.698;11.946;2023-07-20T06:06:24;21.90;44.70
13440;DHT22;6792;57.698;11.946;2023-07-20T06:08:53;22.00;44.80
13440;DHT22;6792;57.698;11.946;2023-07-20T06:11:23;22.00;44.70
13440;DHT22;6792;57.698;11.946;2023-07-20T06:13:54;22.00;44.80
13440;DHT22;6792;57.698;11.946;2023-07-20T06:16:23;22.00;44.30
13440;DHT22;6792;57.698;11.946;2023-07-20T06:18:52;22.00;44.30
13440;DHT22;6792;57.698;11.946;2023-07-20T06:21:21;22.00;44.90
13440;DHT22;6792;57.698;11.946;2023-07-20T06:23:53;22.10;45.00
13440;DHT22;6792;57.698;11.946;2023-07-20T06:26:22;22.10;45.00
13440;DHT22;6792;57.698;11.946;2023-07-20T06:28:51;22.10;45.00
13440;DHT22;6792;57.698;11.946;2023-07-20T06:31:23;22.00;44.40
13440;DHT22;6792;57.698;11.946;2023-07-20T06:33:52;22.10;45.00
13440;DHT22;6792;57.698;11.946;2023-07-20T06:36:22;22.10;44.90
13440;DHT22;6792;57.698;11.946;2023-07-20T06:38:51;22.10;45.00
13440;DHT22;6792;57.698;11.946;2023-07-20T06:41:20;22.10;45.00
13440;DHT22;6792;57.698;11.946;2023-07-20T06:43:50;22.20;45.00
13440;DHT22;6792;57.698;11.946;2023-07-20T06:46:20;22.20;44.40
13440;DHT22;6792;57.698;11.946;2023-07-20T06:48:51;22.20;45.00
13440;DHT22;6792;57.698;11.946;2023-07-20T06:51:21;22.30;45.10
13440;DHT22;6792;57.698;11.946;2023-07-20T06:53:52;22.40;45.00
13440;DHT22;6792;57.698;11.946;2023-07-20T06:56:21;22.50;45.00
13440;DHT22;6792;57.698;11.946;2023-07-20T06:58:53;22.50;45.00
13440;DHT22;6792;57.698;11.946;2023-07-20T07:01:22;22.50;44.90
13440;DHT22;6792;57.698;11.946;2023-07-20T07:03:51;22.60;44.90
13440;DHT22;6792;57.698;11.946;2023-07-20T07:06:22;22.60;44.80
13440;DHT22;6792;57.698;11.946;2023-07-20T07:08:52;22.60;44.10
13440;DHT22;6792;57.698;11.946;2023-07-20T07:11:21;22.70;44.60
13440;DHT22;6792;57.698;11.946;2023-07-20T07:13:58;22.70;44.00
13440;DHT22;6792;57.698;11.946;2023-07-20T07:16:27;22.70;45.10
13440;DHT22;6792;57.698;11.946;2023-07-20T07:18:56;22.70;44.50
13440;DHT22;6792;57.698;11.946;2023-07-20T07:21:26;22.60;43.90
13440;DHT22;6792;57.698;11.946;2023-07-20T07:23:55;22.70;44.60
13440;DHT22;6792;57.698;11.946;2023-07-20T07:26:27;22.70;44.70
13440;DHT22;6792;57.698;11.946;2023-07-20T07:28:56;22.70;44.60
13440;DHT22;6792;57.698;11.946;2023-07-20T07:31:28;22.70;44.60
13440;DHT22;6792;57.698;11.946;2023-07-20T07:33:58;22.70;44.60
13440;DHT22;6792;57.698;11.946;2023-07-20T07:36:27;22.70;44.60
13440;DHT22;6792;57.698;11.946;2023-07-20T07:38:56;22.80;44.60
13440;DHT22;6792;57.698;11.946;2023-07-20T07:41:25;22.80;44.60
13440;DHT22;6792;57.698;11.946;2023-07-20T07:46:37;22.90;43.90
13440;DHT22;6792;57.698;11.946;2023-07-20T07:49:07;22.90;44.50
13440;DHT22;6792;57.698;11.946;2023-07-20T07:51:36;22.90;44.50
13440;DHT22;6792;57.698;11.946;2023-07-20T07:54:05;22.90;44.50
13440;DHT22;6792;57.698;11.946;2023-07-20T07:56:34;22.90;44.60
13440;DHT22;6792;57.698;11.946;2023-07-20T07:59:03;22.90;44.60
13440;DHT22;6792;57.698;11.946;2023-07-20T08:01:33;23.00;44.70
13440;DHT22;6792;57.698;11.946;2023-07-20T08:04:02;23.00;44.60
13440;DHT22;6792;57.698;11.946;2023-07-20T08:06:31;23.10;44.50
13440;DHT22;6792;57.698;11.946;2023-07-20T08:09:00;23.10;44.40
13440;DHT22;6792;57.698;11.946;2023-07-20T08:11:31;23.10;43.90
13440;DHT22;6792;57.698;11.946;2023-07-20T08:14:01;23.10;43.90
13440;DHT22;6792;57.698;11.946;2023-07-20T08:16:30;23.10;44.40
13440;DHT22;6792;57.698;11.946;2023-07-20T08:19:00;23.20;44.30
13440;DHT22;6792;57.698;11.946;2023-07-20T08:21:30;23.20;43.70
13440;DHT22;6792;57.698;11.946;2023-07-20T08:23:59;23.20;44.20
13440;DHT22;6792;57.698;11.946;2023-07-20T08:26:28;23.20;44.20
13440;DHT22;6792;57.698;11.946;2023-07-20T08:29:01;23.20;44.20
13440;DHT22;6792;57.698;11.946;2023-07-20T08:31:30;23.20;44.10
13440;DHT22;6792;57.698;11.946;2023-07-20T08:33:59;23.20;44.20
13440;DHT22;6792;57.698;11.946;2023-07-20T08:36:28;23.30;44.30
13440;DHT22;6792;57.698;11.946;2023-07-20T08:38:58;23.30;44.20
13440;DHT22;6792;57.698;11.946;2023-07-20T08:41:28;23.40;44.10
13440;DHT22;6792;57.698;11.946;2023-07-20T08:43:58;23.40;44.00
13440;DHT22;6792;57.698;11.946;2023-07-20T08:46:28;23.40;43.90
13440;DHT22;6792;57.698;11.946;2023-07-20T08:48:57;23.50;43.90
13440;DHT22;6792;57.698;11.946;2023-07-20T08:51:28;23.50;43.30
13440;DHT22;6792;57.698;11.946;2023-07-20T08:53:58;23.50;43.80
13440;DHT22;6792;57.698;11.946;2023-07-20T08:56:27;23.50;43.80
13440;DHT22;6792;57.698;11.946;2023-07-20T08:58:57;23.60;44.00
13440;DHT22;6792;57.698;11.946;2023-07-20T09:01:28;23.60;43.50
13440;DHT22;6792;57.698;11.946;2023-07-20T09:03:58;23.60;43.40
13440;DHT22;6792;57.698;11.946;2023-07-20T09:06:27;23.60;43.20
13440;DHT22;6792;57.698;11.946;2023-07-20T09:08:56;23.60;43.20
13440;DHT22;6792;57.698;11.946;2023-07-20T09:11:26;23.70;43.20
13440;DHT22;6792;57.698;11.946;2023-07-20T09:14:04;23.70;43.10
13440;DHT22;6792;57.698;11.946;2023-07-20T09:16:47;23.70;43.00
13440;DHT22;6792;57.698;11.946;2023-07-20T09:19:20;23.70;42.90
13440;DHT22;6792;57.698;11.946;2023-07-20T09:21:51;23.70;42.90
13440;DHT22;6792;57.698;11.946;2023-07-20T09:24:21;23.70;42.40
13440;DHT22;6792;57.698;11.946;2023-07-20T09:26:51;23.80;42.80
13440;DHT22;6792;57.698;11.946;2023-07-20T09:29:20;23.80;42.80
13440;DHT22;6792;57.698;11.946;2023-07-20T09:32:00;23.80;42.70
13440;DHT22;6792;57.698;11.946;2023-07-20T09:34:30;23.80;42.60
13440;DHT22;6792;57.698;11.946;2023-07-20T09:37:00;23.80;42.60
13440;DHT22;6792;57.698;11.946;2023-07-20T09:39:29;23.80;42.60
13440;DHT22;6792;57.698;11.946;2023-07-20T09:42:02;23.80;42.60
13440;DHT22;6792;57.698;11.946;2023-07-20T09:44:32;23.80;42.00
13440;DHT22;6792;57.698;11.946;2023-07-20T09:47:04;23.80;42.50
13440;DHT22;6792;57.698;11.946;2023-07-20T09:49:37;23.80;42.50
13440;DHT22;6792;57.698;11.946;2023-07-20T09:52:04;23.80;42.60
13440;DHT22;6792;57.698;11.946;2023-07-20T09:54:34;23.80;42.60
13440;DHT22;6792;57.698;11.946;2023-07-20T09:57:07;23.80;42.60
13440;DHT22;6792;57.698;11.946;2023-07-20T09:59:37;23.80;42.60
13440;DHT22;6792;57.698;11.946;2023-07-20T10:02:10;23.80;42.60
13440;DHT22;6792;57.698;11.946;2023-07-20T10:04:39;23.80;41.90
13440;DHT22;6792;57.698;11.946;2023-07-20T10:07:11;23.80;43.10
13440;DHT22;6792;57.698;11.946;2023-07-20T10:09:41;23.80;42.50
13440;DHT22;6792;57.698;11.946;2023-07-20T10:12:10;23.80;42.60
13440;DHT22;6792;57.698;11.946;2023-07-20T10:14:42;23.80;42.60
13440;DHT22;6792;57.698;11.946;2023-07-20T10:17:13;23.90;42.00
13440;DHT22;6792;57.698;11.946;2023-07-20T10:19:46;23.80;42.00
13440;DHT22;6792;57.698;11.946;2023-07-20T10:22:19;23.80;42.00
13440;DHT22;6792;57.698;11.946;2023-07-20T10:24:49;23.90;42.10
13440;DHT22;6792;57.698;11.946;2023-07-20T10:27:21;23.90;42.70
13440;DHT22;6792;57.698;11.946;2023-07-20T10:29:51;23.90;42.60
13440;DHT22;6792;57.698;11.946;2023-07-20T10:32:23;24.00;42.00
13440;DHT22;6792;57.698;11.946;2023-07-20T10:34:52;24.00;41.90
13440;DHT22;6792;57.698;11.946;2023-07-20T10:37:49;24.00;42.40
13440;DHT22;6792;57.698;11.946;2023-07-20T10:40:30;24.00;41.70
13440;DHT22;6792;57.698;11.946;2023-07-20T10:43:01;24.00;42.00
13440;DHT22;6792;57.698;11.946;2023-07-20T10:45:48;24.00;42.60
13440;DHT22;6792;57.698;11.946;2023-07-20T10:48:20;24.00;42.50
13440;DHT22;6792;57.698;11.946;2023-07-20T10:51:12;24.10;41.90
13440;DHT22;6792;57.698;11.946;2023-07-20T10:53:42;24.20;41.90
13440;DHT22;6792;57.698;11.946;2023-07-20T10:56:14;24.20;42.40
13440;DHT22;6792;57.698;11.946;2023-07-20T10:58:44;24.30;42.40
13440;DHT22;6792;57.698;11.946;2023-07-20T11:01:15;24.30;42.40
13440;DHT22;6792;57.698;11.946;2023-07-20T11:03:49;24.40;42.40
13440;DHT22;6792;57.698;11.946;2023-07-20T11:09:18;24.40;41.80
13440;DHT22;6792;57.698;11.946;2023-07-20T11:11:50;24.50;41.70
13440;DHT22;6792;57.698;11.946;2023-07-20T11:14:27;24.50;41.70
13440;DHT22;6792;57.698;11.946;2023-07-20T11:17:10;24.60;41.70
13440;DHT22;6792;57.698;11.946;2023-07-20T11:19:30;24.60;42.20
13440;DHT22;6792;57.698;11.946;2023-07-20T11:21:59;24.60;42.20
13440;DHT22;6792;57.698;11.946;2023-07-20T11:24:31;24.70;42.20
13440;DHT22;6792;57.698;11.946;2023-07-20T11:27:00;24.70;42.10
13440;DHT22;6792;57.698;11.946;2023-07-20T11:29:30;24.70;42.00
13440;DHT22;6792;57.698;11.946;2023-07-20T11:31:59;24.70;41.30
13440;DHT22;6792;57.698;11.946;2023-07-20T11:34:30;24.80;42.40
13440;DHT22;6792;57.698;11.946;2023-07-20T11:37:00;24.90;41.70
13440;DHT22;6792;57.698;11.946;2023-07-20T11:39:30;24.90;41.60
13440;DHT22;6792;57.698;11.946;2023-07-20T11:42:00;24.90;41.60
13440;DHT22;6792;57.698;11.946;2023-07-20T11:44:29;24.90;41.60
13440;DHT22;6792;57.698;11.946;2023-07-20T11:47:03;24.90;41.60
13440;DHT22;6792;57.698;11.946;2023-07-20T11:49:38;25.00;41.70
13440;DHT22;6792;57.698;11.946;2023-07-20T11:52:09;25.00;41.60
13440;DHT22;6792;57.698;11.946;2023-07-20T11:54:40;25.00;41.60
13440;DHT22;6792;57.698;11.946;2023-07-20T11:57:16;25.10;41.50
13440;DHT22;6792;57.698;11.946;2023-07-20T11:59:54;25.10;41.50
13440;DHT22;6792;57.698;11.946;2023-07-20T12:02:25;25.20;41.40
13440;DHT22;6792;57.698;11.946;2023-07-20T12:04:56;25.30;41.40
13440;DHT22;6792;57.698;11.946;2023-07-20T12:07:27;25.30;41.40
13440;DHT22;6792;57.698;11.946;2023-07-20T12:10:08;25.40;41.60
13440;DHT22;6792;57.698;11.946;2023-07-20T12:12:40;25.50;41.00
13440;DHT22;6792;57.698;11.946;2023-07-20T12:15:17;25.60;41.00
13440;DHT22;6792;57.698;11.946;2023-07-20T12:17:46;25.60;41.40
13440;DHT22;6792;57.698;11.946;2023-07-20T12:20:27;25.70;41.50
13440;DHT22;6792;57.698;11.946;2023-07-20T12:22:59;25.80;40.90
13440;DHT22;6792;57.698;11.946;2023-07-20T12:28:33;26.00;40.70
13440;DHT22;6792;57.698;11.946;2023-07-20T12:31:04;26.10;40.60
13440;DHT22;6792;57.698;11.946;2023-07-20T12:33:34;26.10;40.60
13440;DHT22;6792;57.698;11.946;2023-07-20T12:36:04;26.20;41.10
13440;DHT22;6792;57.698;11.946;2023-07-20T12:38:33;26.30;41.10
13440;DHT22;6792;57.698;11.946;2023-07-20T12:41:03;26.50;41.10
13440;DHT22;6792;57.698;11.946;2023-07-20T12:43:32;26.50;41.00
13440;DHT22;6792;57.698;11.946;2023-07-20T12:46:02;26.70;41.00
13440;DHT22;6792;57.698;11.946;2023-07-20T12:48:31;26.80;40.80
13440;DHT22;6792;57.698;11.946;2023-07-20T12:51:00;26.90;40.80
13440;DHT22;6792;57.698;11.946;2023-07-20T12:53:32;27.00;40.80
13440;DHT22;6792;57.698;11.946;2023-07-20T12:56:01;27.10;40.10
13440;DHT22;6792;57.698;11.946;2023-07-20T12:58:30;27.10;40.60
13440;DHT22;6792;57.698;11.946;2023-07-20T13:01:00;27.20;40.80
13440;DHT22;6792;57.698;11.946;2023-07-20T13:03:29;27.30;40.70
13440;DHT22;6792;57.698;11.946;2023-07-20T13:05:59;27.50;40.80
13440;DHT22;6792;57.698;11.946;2023-07-20T13:08:28;27.60;40.50
13440;DHT22;6792;57.698;11.946;2023-07-20T13:10:57;27.60;40.10
13440;DHT22;6792;57.698;11.946;2023-07-20T13:13:28;27.60;40.00
13440;DHT22;6792;57.698;11.946;2023-07-20T13:15:57;27.50;40.10
13440;DHT22;6792;57.698;11.946;2023-07-20T13:18:26;27.50;40.20
13440;DHT22;6792;57.698;11.946;2023-07-20T13:20:56;27.60;40.20
13440;DHT22;6792;57.698;11.946;2023-07-20T13:23:25;27.50;40.00
13440;DHT22;6792;57.698;11.946;2023-07-20T13:25:54;27.50;40.10
13440;DHT22;6792;57.698;11.946;2023-07-20T13:28:23;27.70;40.50
13440;DHT22;6792;57.698;11.946;2023-07-20T13:30:52;28.10;39.90
13440;DHT22;6792;57.698;11.946;2023-07-20T13:33:21;28.50;40.30
13440;DHT22;6792;57.698;11.946;2023-07-20T13:35:51;28.90;40.00
13440;DHT22;6792;57.698;11.946;2023-07-20T13:38:20;29.40;39.80
13440;DHT22;6792;57.698;11.946;2023-07-20T13:40:50;29.80;39.30
13440;DHT22;6792;57.698;11.946;2023-07-20T13:43:21;30.70;39.60
13440;DHT22;6792;57.698;11.946;2023-07-20T13:45:51;32.00;39.20
13440;DHT22;6792;57.698;11.946;2023-07-20T13:48:20;33.50;38.20
13440;DHT22;6792;57.698;11.946;2023-07-20T13:50:53;35.00;36.60
13440;DHT22;6792;57.698;11.946;2023-07-20T13:53:22;35.80;34.80
13440;DHT22;6792;57.698;11.946;2023-07-20T13:55:52;36.70;33.80
13440;DHT22;6792;57.698;11.946;2023-07-20T13:58:21;37.90;33.00
13440;DHT22;6792;57.698;11.946;2023-07-20T14:00:53;39.20;31.50
13440;DHT22;6792;57.698;11.946;2023-07-20T14:03:22;40.30;30.90
13440;DHT22;6792;57.698;11.946;2023-07-20T14:05:52;41.50;29.50
13440;DHT22;6792;57.698;11.946;2023-07-20T14:08:22;42.50;28.30
13440;DHT22;6792;57.698;11.946;2023-07-20T14:10:54;42.50;26.90
13440;DHT22;6792;57.698;11.946;2023-07-20T14:13:23;41.90;26.50
13440;DHT22;6792;57.698;11.946;2023-07-20T14:15:52;41.50;26.40
13440;DHT22;6792;57.698;11.946;2023-07-20T14:18:21;41.50;26.60
13440;DHT22;6792;57.698;11.946;2023-07-20T14:20:51;41.40;25.50
13440;DHT22;6792;57.698;11.946;2023-07-20T14:23:20;40.90;25.60
13440;DHT22;6792;57.698;11.946;2023-07-20T14:25:50;40.10;25.70
13440;DHT22;6792;57.698;11.946;2023-07-20T14:28:20;39.20;25.80
13440;DHT22;6792;57.698;11.946;2023-07-20T14:30:51;38.30;26.00
13440;DHT22;6792;57.698;11.946;2023-07-20T14:33:21;37.40;26.40
13440;DHT22;6792;57.698;11.946;2023-07-20T14:35:53;36.70;26.80
13440;DHT22;6792;57.698;11.946;2023-07-20T14:38:22;36.10;27.20
13440;DHT22;6792;57.698;11.946;2023-07-20T14:40:51;35.50;27.40
13440;DHT22;6792;57.698;11.946;2023-07-20T14:43:21;34.90;27.80
13440;DHT22;6792;57.698;11.946;2023-07-20T14:45:53;34.30;28.10
13440;DHT22;6792;57.698;11.946;2023-07-20T14:48:22;33.70;28.50
13440;DHT22;6792;57.698;11.946;2023-07-20T14:50:53;33.20;28.90
13440;DHT22;6792;57.698;11.946;2023-07-20T14:53:30;32.80;29.20
13440;DHT22;6792;57.698;11.946;2023-07-20T14:56:02;32.40;29.50
13440;DHT22;6792;57.698;11.946;2023-07-20T14:58:50;31.90;29.70
13440;DHT22;6792;57.698;11.946;2023-07-20T15:01:22;31.50;30.00
13440;DHT22;6792;57.698;11.946;2023-07-20T15:03:54;31.10;30.40
13440;DHT22;6792;57.698;11.946;2023-07-20T15:06:34;30.80;30.90
13440;DHT22;6792;57.698;11.946;2023-07-20T15:09:12;30.40;30.80
13440;DHT22;6792;57.698;11.946;2023-07-20T15:11:53;30.00;31.10
13440;DHT22;6792;57.698;11.946;2023-07-20T15:14:27;29.90;32.30
13440;DHT22;6792;57.698;11.946;2023-07-20T15:16:58;29.60;32.70
13440;DHT22;6792;57.698;11.946;2023-07-20T15:19:32;29.40;32.50
13440;DHT22;6792;57.698;11.946;2023-07-20T15:22:02;29.20;33.50
13440;DHT22;6792;57.698;11.946;2023-07-20T15:24:35;29.00;33.60
13440;DHT22;6792;57.698;11.946;2023-07-20T15:27:11;28.80;33.90
13440;DHT22;6792;57.698;11.946;2023-07-20T15:29:41;28.70;34.20
13440;DHT22;6792;57.698;11.946;2023-07-20T15:32:13;28.60;34.50
13440;DHT22;6792;57.698;11.946;2023-07-20T15:34:46;28.30;34.70
13440;DHT22;6792;57.698;11.946;2023-07-20T15:37:21;28.10;35.00
13440;DHT22;6792;57.698;11.946;2023-07-20T15:39:57;28.00;35.40
13440;DHT22;6792;57.698;11.946;2023-07-20T15:42:37;27.80;35.60
13440;DHT22;6792;57.698;11.946;2023-07-20T15:45:10;27.60;35.20
13440;DHT22;6792;57.698;11.946;2023-07-20T15:47:39;27.50;36.10
13440;DHT22;6792;57.698;11.946;2023-07-20T15:50:09;27.40;36.40
13440;DHT22;6792;57.698;11.946;2023-07-20T15:52:38;27.30;36.70
13440;DHT22;6792;57.698;11.946;2023-07-20T15:55:10;27.10;36.70
13440;DHT22;6792;57.698;11.946;2023-07-20T15:57:39;27.00;37.00
13440;DHT22;6792;57.698;11.946;2023-07-20T16:00:10;27.00;37.20